createdAt,value
2022-08-29T00:00:59.752Z,19.50
2022-08-29T00:03:27.866Z,19.30
2022-08-29T00:05:56.711Z,19.40
2022-08-29T00:08:24.339Z,19.40
2022-08-29T00:10:51.306Z,19.40
2022-08-29T00:13:18.052Z,19.40
2022-08-29T00:15:45.464Z,19.50
2022-08-29T00:18:17.480Z,19.30
2022-08-29T00:20:46.069Z,19.30
2022-08-29T00:23:12.999Z,19.30
2022-08-29T00:25:39.977Z,19.30
2022-08-29T00:28:07.572Z,19.20
2022-08-29T00:30:35.518Z,19.20
2022-08-29T00:33:02.719Z,19.20
2022-08-29T00:35:35.570Z,19.20
2022-08-29T00:38:05.661Z,19.20
2022-08-29T00:40:41.499Z,19.10
2022-08-29T00:43:10.002Z,19.10
2022-08-29T00:45:47.302Z,19.10
2022-08-29T00:48:16.574Z,19.10
2022-08-29T00:51:01.127Z,19.10
2022-08-29T00:53:40.908Z,19.00
2022-08-29T00:56:11.874Z,19.00
2022-08-29T00:58:47.641Z,19.00
2022-08-29T01:01:15.033Z,19.00
2022-08-29T01:03:43.270Z,18.90
2022-08-29T01:06:13.606Z,18.90
2022-08-29T01:08:41.839Z,19.00
2022-08-29T01:11:29.870Z,18.90
2022-08-29T01:13:58.673Z,19.00
2022-08-29T01:16:27.603Z,18.90
2022-08-29T01:19:01.442Z,18.90
2022-08-29T01:21:48.032Z,18.90
2022-08-29T01:24:41.736Z,18.90
2022-08-29T01:27:11.399Z,18.80
2022-08-29T01:29:38.376Z,18.70
2022-08-29T01:32:06.127Z,18.80
2022-08-29T01:34:33.254Z,18.80
2022-08-29T01:37:05.050Z,18.70
2022-08-29T01:39:36.877Z,18.70
2022-08-29T01:42:10.653Z,18.70
2022-08-29T01:44:39.423Z,18.00
2022-08-29T01:47:08.904Z,18.70
2022-08-29T01:49:37.822Z,18.70
2022-08-29T01:52:08.382Z,18.80
2022-08-29T01:54:35.563Z,18.70
2022-08-29T01:57:02.575Z,18.60
2022-08-29T01:59:31.172Z,18.60
2022-08-29T02:02:25.961Z,18.60
2022-08-29T02:04:53.824Z,18.60
2022-08-29T02:07:24.434Z,18.60
2022-08-29T02:09:52.111Z,18.50
2022-08-29T02:12:20.703Z,18.50
2022-08-29T02:14:48.268Z,18.50
2022-08-29T02:17:15.104Z,18.50
2022-08-29T02:19:42.570Z,18.40
2022-08-29T02:22:10.032Z,18.50
2022-08-29T02:24:37.994Z,18.40
2022-08-29T02:27:05.161Z,18.40
2022-08-29T02:29:37.170Z,17.90
2022-08-29T02:32:07.269Z,18.40
2022-08-29T02:34:35.328Z,18.60
2022-08-29T02:37:02.609Z,18.40
2022-08-29T02:39:29.592Z,18.30
2022-08-29T02:41:56.652Z,18.30
2022-08-29T02:44:23.474Z,18.40
2022-08-29T02:46:50.746Z,18.30
2022-08-29T02:49:17.708Z,18.30
2022-08-29T02:51:45.342Z,18.30
2022-08-29T02:54:13.235Z,18.30
2022-08-29T02:56:41.169Z,18.30
2022-08-29T02:59:08.509Z,18.30
2022-08-29T03:01:38.657Z,18.20
2022-08-29T03:04:06.052Z,18.20
2022-08-29T03:06:33.249Z,18.20
2022-08-29T03:09:01.052Z,18.20
2022-08-29T03:11:29.617Z,18.20
2022-08-29T03:13:57.975Z,18.10
2022-08-29T03:16:27.025Z,18.10
2022-08-29T03:18:54.728Z,18.10
2022-08-29T03:21:26.957Z,18.10
2022-08-29T03:23:56.261Z,18.10
2022-08-29T03:26:23.780Z,18.10
2022-08-29T03:28:50.884Z,18.00
2022-08-29T03:31:17.745Z,18.00
2022-08-29T03:33:44.544Z,18.00
2022-08-29T03:36:13.609Z,18.00
2022-08-29T03:38:46.432Z,17.90
2022-08-29T03:41:23.297Z,17.90
2022-08-29T03:43:51.499Z,17.90
2022-08-29T03:46:18.507Z,17.90
2022-08-29T03:48:45.451Z,17.90
2022-08-29T03:51:12.497Z,17.90
2022-08-29T03:53:40.755Z,17.80
2022-08-29T03:56:10.747Z,17.80
2022-08-29T03:58:48.027Z,17.80
2022-08-29T04:01:19.224Z,17.80
2022-08-29T04:03:46.177Z,17.80
2022-08-29T04:06:12.928Z,17.80
2022-08-29T04:08:39.914Z,17.70
2022-08-29T04:11:11.495Z,17.70
2022-08-29T04:13:38.411Z,17.70
2022-08-29T04:16:19.456Z,17.70
2022-08-29T04:18:46.521Z,17.70
2022-08-29T04:21:13.850Z,17.70
2022-08-29T04:23:40.915Z,17.70
2022-08-29T04:26:36.047Z,17.70
2022-08-29T04:29:06.017Z,17.70
2022-08-29T04:31:33.012Z,17.60
2022-08-29T04:33:59.873Z,17.60
2022-08-29T04:36:28.090Z,17.60
2022-08-29T04:38:55.268Z,17.60
2022-08-29T04:41:22.106Z,17.60
2022-08-29T04:43:48.875Z,17.60
2022-08-29T04:46:23.958Z,17.60
2022-08-29T04:48:53.103Z,17.70
2022-08-29T04:51:21.361Z,17.70
2022-08-29T04:53:50.967Z,17.70
2022-08-29T04:56:18.467Z,17.80
2022-08-29T04:58:45.683Z,17.80
2022-08-29T05:01:15.981Z,17.80
2022-08-29T05:03:43.410Z,17.90
2022-08-29T05:06:13.752Z,17.90
2022-08-29T05:08:43.063Z,17.90
2022-08-29T05:11:22.587Z,17.90
2022-08-29T05:13:53.323Z,17.90
2022-08-29T05:16:20.432Z,17.90
2022-08-29T05:18:47.478Z,17.90
2022-08-29T05:21:25.759Z,17.90
2022-08-29T05:23:54.542Z,17.90
2022-08-29T05:26:21.332Z,17.90
2022-08-29T05:28:48.688Z,17.90
2022-08-29T05:31:15.640Z,17.90
2022-08-29T05:33:43.156Z,17.90
2022-08-29T05:36:10.547Z,17.90
2022-08-29T05:38:37.510Z,17.90
2022-08-29T05:41:04.785Z,17.90
2022-08-29T05:43:33.117Z,17.90
2022-08-29T05:46:06.736Z,18.00
2022-08-29T05:48:34.652Z,18.00
2022-08-29T05:51:01.870Z,18.10
2022-08-29T05:53:28.944Z,18.10
2022-08-29T05:55:55.983Z,18.10
2022-08-29T05:58:23.131Z,18.20
2022-08-29T06:00:50.382Z,18.20
2022-08-29T06:03:17.536Z,18.30
2022-08-29T06:05:52.069Z,18.50
2022-08-29T06:08:21.134Z,18.50
2022-08-29T06:10:48.219Z,18.50
2022-08-29T06:13:15.264Z,18.60
2022-08-29T06:15:45.798Z,18.70
2022-08-29T06:18:13.110Z,18.80
2022-08-29T06:20:40.331Z,18.90
2022-08-29T06:23:07.140Z,19.00
2022-08-29T06:25:39.502Z,19.10
2022-08-29T06:28:07.697Z,19.30
2022-08-29T06:30:34.847Z,19.40
2022-08-29T06:33:02.533Z,19.50
2022-08-29T06:35:29.950Z,19.60
2022-08-29T06:37:56.803Z,19.60
2022-08-29T06:40:23.721Z,19.70
2022-08-29T06:42:50.622Z,19.80
2022-08-29T06:45:17.535Z,19.80
2022-08-29T06:47:47.701Z,19.90
2022-08-29T06:50:16.499Z,19.90
2022-08-29T06:52:43.817Z,20.00
2022-08-29T06:55:14.802Z,20.00
2022-08-29T06:57:45.405Z,20.00
2022-08-29T07:00:22.092Z,20.10
2022-08-29T07:02:51.851Z,20.10
2022-08-29T07:05:22.590Z,20.10
2022-08-29T07:07:51.018Z,20.20
2022-08-29T07:10:22.548Z,20.20
2022-08-29T07:12:51.138Z,20.30
2022-08-29T07:15:18.937Z,20.40
2022-08-29T07:17:46.358Z,20.50
2022-08-29T07:20:14.312Z,20.50
2022-08-29T07:25:10.365Z,20.60
2022-08-29T07:27:37.569Z,20.70
2022-08-29T07:30:06.738Z,20.70
2022-08-29T07:32:33.574Z,20.70
2022-08-29T07:35:00.377Z,20.80
2022-08-29T07:37:27.211Z,20.80
2022-08-29T07:39:54.427Z,20.90
2022-08-29T07:42:21.462Z,21.00
2022-08-29T07:44:48.235Z,21.00
2022-08-29T07:47:15.408Z,21.00
2022-08-29T07:49:42.284Z,20.90
2022-08-29T07:52:09.503Z,21.00
2022-08-29T07:54:36.355Z,21.00
2022-08-29T07:57:03.185Z,21.00
2022-08-29T07:59:31.269Z,21.00
2022-08-29T08:01:58.137Z,21.10
2022-08-29T08:04:26.200Z,21.10
2022-08-29T08:06:53.218Z,21.10
2022-08-29T08:09:20.064Z,21.20
2022-08-29T08:11:47.589Z,21.20
2022-08-29T08:14:14.383Z,21.30
2022-08-29T08:16:44.266Z,21.20
2022-08-29T08:19:14.243Z,21.20
2022-08-29T08:21:44.382Z,21.40
2022-08-29T08:24:19.768Z,21.30
2022-08-29T08:26:49.085Z,21.40
2022-08-29T08:29:16.317Z,21.40
2022-08-29T08:31:50.235Z,21.40
2022-08-29T08:34:18.956Z,21.50
2022-08-29T08:36:46.336Z,21.60
2022-08-29T08:39:14.618Z,21.60
2022-08-29T08:42:03.224Z,21.70
2022-08-29T08:44:58.113Z,21.60
2022-08-29T08:47:44.636Z,21.70
2022-08-29T08:50:25.335Z,21.70
2022-08-29T08:53:28.053Z,21.80
2022-08-29T08:55:58.066Z,21.80
2022-08-29T08:58:36.857Z,21.80
2022-08-29T09:01:34.348Z,21.80
2022-08-29T09:04:12.700Z,21.90
2022-08-29T09:07:26.866Z,22.00
2022-08-29T09:10:40.994Z,22.00
2022-08-29T09:13:45.958Z,22.10
2022-08-29T09:16:34.202Z,22.30
2022-08-29T09:19:10.898Z,22.40
2022-08-29T09:21:58.951Z,22.50
2022-08-29T09:24:49.164Z,22.50
2022-08-29T09:27:21.991Z,22.60
2022-08-29T09:30:10.985Z,22.60
2022-08-29T09:33:15.287Z,22.70
2022-08-29T09:35:47.585Z,22.80
2022-08-29T09:38:17.427Z,22.80
2022-08-29T09:40:57.001Z,22.80
2022-08-29T09:43:39.430Z,22.80
2022-08-29T09:46:24.438Z,22.80
2022-08-29T09:49:19.048Z,22.90
2022-08-29T09:51:49.386Z,22.90
2022-08-29T09:54:28.601Z,23.00
2022-08-29T09:57:26.492Z,22.90
2022-08-29T10:00:14.484Z,23.00
2022-08-29T10:02:50.309Z,23.00
2022-08-29T10:05:45.919Z,23.10
2022-08-29T10:08:38.900Z,23.10
2022-08-29T10:11:41.814Z,23.30
2022-08-29T10:14:37.023Z,23.30
2022-08-29T10:17:44.902Z,23.40
2022-08-29T10:20:12.173Z,23.50
2022-08-29T10:22:57.596Z,23.60
2022-08-29T10:25:37.452Z,23.70
2022-08-29T10:28:31.193Z,23.70
2022-08-29T10:31:13.572Z,23.70
2022-08-29T10:34:05.097Z,23.90
2022-08-29T10:36:37.284Z,23.90
2022-08-29T10:40:04.044Z,23.90
2022-08-29T10:42:34.790Z,24.00
2022-08-29T10:45:36.266Z,24.00
2022-08-29T10:48:19.474Z,24.10
2022-08-29T10:51:09.068Z,24.10
2022-08-29T10:53:43.853Z,24.20
2022-08-29T10:56:33.055Z,24.20
2022-08-29T11:00:02.644Z,24.30
2022-08-29T11:02:52.024Z,24.30
2022-08-29T11:05:39.331Z,24.40
2022-08-29T11:08:31.936Z,24.40
2022-08-29T11:10:58.776Z,24.40
2022-08-29T11:13:42.064Z,24.50
2022-08-29T11:16:27.513Z,24.40
2022-08-29T11:19:16.182Z,24.40
2022-08-29T11:22:09.644Z,24.50
2022-08-29T11:24:42.007Z,24.50
2022-08-29T11:28:04.179Z,24.50
2022-08-29T11:30:55.815Z,24.50
2022-08-29T11:33:42.606Z,24.50
2022-08-29T11:36:49.294Z,24.50
2022-08-29T11:39:54.772Z,24.50
2022-08-29T11:45:29.637Z,24.40
2022-08-29T11:48:46.219Z,24.50
2022-08-29T11:51:37.459Z,24.50
2022-08-29T11:54:26.449Z,24.60
2022-08-29T11:57:02.554Z,24.70
2022-08-29T11:59:54.662Z,24.80
2022-08-29T12:02:27.705Z,24.70
2022-08-29T12:04:56.909Z,24.80
2022-08-29T12:07:54.487Z,25.00
2022-08-29T12:10:23.933Z,24.90
2022-08-29T12:13:03.561Z,24.90
2022-08-29T12:15:30.576Z,25.00
2022-08-29T12:18:36.324Z,25.10
2022-08-29T12:21:39.451Z,25.10
2022-08-29T12:24:29.327Z,25.20
2022-08-29T12:26:56.403Z,25.30
2022-08-29T12:29:44.639Z,25.30
2022-08-29T12:32:35.072Z,25.40
2022-08-29T12:35:14.427Z,25.40
2022-08-29T12:38:16.745Z,25.50
2022-08-29T12:40:57.038Z,25.50
2022-08-29T12:43:42.552Z,25.60
2022-08-29T12:46:28.626Z,25.60
2022-08-29T12:49:53.150Z,25.70
2022-08-29T12:52:38.940Z,25.80
2022-08-29T12:55:29.041Z,25.80
2022-08-29T12:57:57.661Z,25.90
2022-08-29T13:00:30.211Z,26.00
2022-08-29T13:03:18.214Z,26.10
2022-08-29T13:05:47.162Z,26.10
2022-08-29T13:08:28.426Z,26.20
2022-08-29T13:11:05.242Z,25.70
2022-08-29T13:13:32.191Z,26.30
2022-08-29T13:16:02.948Z,26.40
2022-08-29T13:18:33.735Z,26.50
2022-08-29T13:21:22.161Z,26.40
2022-08-29T13:24:24.642Z,26.50
2022-08-29T13:27:04.798Z,26.50
2022-08-29T13:29:41.290Z,26.50
2022-08-29T13:32:26.849Z,26.50
2022-08-29T13:35:06.334Z,26.50
2022-08-29T13:37:43.098Z,26.50
2022-08-29T13:40:31.896Z,26.60
2022-08-29T13:43:00.952Z,26.60
2022-08-29T13:45:28.672Z,26.70
2022-08-29T13:47:59.237Z,26.70
2022-08-29T13:50:27.613Z,26.70
2022-08-29T13:52:57.250Z,26.70
2022-08-29T13:55:25.813Z,26.70
2022-08-29T13:57:55.154Z,26.60
2022-08-29T14:00:31.932Z,26.50
2022-08-29T14:03:01.404Z,26.50
2022-08-29T14:05:28.442Z,26.50
2022-08-29T14:07:55.265Z,26.50
2022-08-29T14:10:22.125Z,26.50
2022-08-29T14:12:49.199Z,26.60
2022-08-29T14:15:19.326Z,27.50
2022-08-29T14:17:47.944Z,26.60
2022-08-29T14:20:17.767Z,26.60
2022-08-29T14:22:45.885Z,26.70
2022-08-29T14:25:15.105Z,26.70
2022-08-29T14:27:43.751Z,26.80
2022-08-29T14:30:14.393Z,26.80
2022-08-29T14:32:41.414Z,26.90
2022-08-29T14:35:09.348Z,26.90
2022-08-29T14:37:36.280Z,26.80
2022-08-29T14:40:08.834Z,26.80
2022-08-29T14:42:36.747Z,26.90
2022-08-29T14:45:06.113Z,26.80
2022-08-29T14:47:33.171Z,26.90
2022-08-29T14:50:00.699Z,27.00
2022-08-29T14:52:28.007Z,26.90
2022-08-29T14:54:56.276Z,26.90
2022-08-29T14:57:23.171Z,26.90
2022-08-29T14:59:51.076Z,26.90
2022-08-29T15:02:20.672Z,26.90
2022-08-29T15:04:49.974Z,26.90
2022-08-29T15:07:18.253Z,26.80
2022-08-29T15:09:45.953Z,26.90
2022-08-29T15:12:15.620Z,26.80
2022-08-29T15:14:42.719Z,26.80
2022-08-29T15:17:10.812Z,26.70
2022-08-29T15:20:18.227Z,26.60
2022-08-29T15:22:25.417Z,26.60
2022-08-29T15:24:53.161Z,26.60
2022-08-29T15:27:26.882Z,26.50
2022-08-29T15:29:54.120Z,26.50
2022-08-29T15:32:20.981Z,26.40
2022-08-29T15:34:47.724Z,26.40
2022-08-29T15:37:14.835Z,26.40
2022-08-29T15:39:42.121Z,26.30
2022-08-29T15:42:11.822Z,26.30
2022-08-29T15:44:44.353Z,26.30
2022-08-29T15:47:11.767Z,26.20
2022-08-29T15:49:39.615Z,26.20
2022-08-29T15:52:06.865Z,26.10
2022-08-29T15:54:33.679Z,26.10
2022-08-29T15:57:01.062Z,26.00
2022-08-29T15:59:54.412Z,26.00
2022-08-29T16:02:15.263Z,26.00
2022-08-29T16:04:48.522Z,26.00
2022-08-29T16:07:17.673Z,25.90
2022-08-29T16:09:45.769Z,25.90
2022-08-29T16:12:12.868Z,25.90
2022-08-29T16:17:30.960Z,25.80
2022-08-29T16:20:00.123Z,25.80
2022-08-29T16:22:28.469Z,25.90
2022-08-29T16:24:55.892Z,25.70
2022-08-29T16:27:24.220Z,25.80
2022-08-29T16:29:53.132Z,25.60
2022-08-29T16:32:20.817Z,25.60
2022-08-29T16:34:47.785Z,25.60
2022-08-29T16:37:15.054Z,25.50
2022-08-29T16:39:42.048Z,25.50
2022-08-29T16:42:12.053Z,25.40
2022-08-29T16:44:40.006Z,25.40
2022-08-29T16:47:07.046Z,25.30
2022-08-29T16:49:33.916Z,25.20
2022-08-29T16:52:00.716Z,25.20
2022-08-29T16:54:27.592Z,25.10
2022-08-29T16:56:55.186Z,25.10
2022-08-29T16:59:22.730Z,25.00
2022-08-29T17:01:53.403Z,25.00
2022-08-29T17:04:26.026Z,25.00
2022-08-29T17:06:53.338Z,25.00
2022-08-29T17:09:23.624Z,24.90
2022-08-29T17:11:52.884Z,24.90
2022-08-29T17:14:21.393Z,25.00
2022-08-29T17:16:52.470Z,25.00
2022-08-29T17:19:20.942Z,25.00
2022-08-29T17:21:48.284Z,25.10
2022-08-29T17:24:16.154Z,25.00
2022-08-29T17:26:46.879Z,25.00
2022-08-29T17:29:15.231Z,25.10
2022-08-29T17:31:42.786Z,25.10
2022-08-29T17:34:10.282Z,25.10
2022-08-29T17:36:40.503Z,25.00
2022-08-29T17:39:08.857Z,25.00
2022-08-29T17:41:37.394Z,24.90
2022-08-29T17:44:07.574Z,24.90
2022-08-29T17:46:35.158Z,24.80
2022-08-29T17:49:07.423Z,24.80
2022-08-29T17:51:35.562Z,24.70
2022-08-29T17:54:04.601Z,24.60
2022-08-29T17:56:48.095Z,24.60
2022-08-29T17:59:17.853Z,24.50
2022-08-29T18:01:45.638Z,24.50
2022-08-29T18:04:13.284Z,24.40
2022-08-29T18:06:40.432Z,24.40
2022-08-29T18:09:09.118Z,24.30
2022-08-29T18:11:45.576Z,24.20
2022-08-29T18:14:13.110Z,24.20
2022-08-29T18:16:40.160Z,24.10
2022-08-29T18:19:08.127Z,24.10
2022-08-29T18:21:35.972Z,24.00
2022-08-29T18:24:04.108Z,23.90
2022-08-29T18:26:33.606Z,23.90
2022-08-29T18:29:00.500Z,23.80
2022-08-29T18:31:27.438Z,23.80
2022-08-29T18:34:00.699Z,23.70
2022-08-29T18:36:34.077Z,23.70
2022-08-29T18:39:04.460Z,23.70
2022-08-29T18:41:31.564Z,23.70
2022-08-29T18:43:58.919Z,23.60
2022-08-29T18:46:27.363Z,23.50
2022-08-29T18:48:54.355Z,23.50
2022-08-29T18:51:21.257Z,23.40
2022-08-29T18:53:48.116Z,23.40
2022-08-29T18:56:15.798Z,23.40
2022-08-29T18:58:44.684Z,23.30
2022-08-29T19:01:27.345Z,23.30
2022-08-29T19:03:56.609Z,23.20
2022-08-29T19:06:25.842Z,23.10
2022-08-29T19:08:54.539Z,23.10
2022-08-29T19:11:21.318Z,23.00
2022-08-29T19:13:52.624Z,23.00
2022-08-29T19:16:22.095Z,22.90
2022-08-29T19:18:50.036Z,22.90
2022-08-29T19:21:16.887Z,22.80
2022-08-29T19:23:52.531Z,22.80
2022-08-29T19:26:34.979Z,22.80
2022-08-29T19:29:12.400Z,22.70
2022-08-29T19:31:40.895Z,22.70
2022-08-29T19:34:08.087Z,22.60
2022-08-29T19:36:34.961Z,22.60
2022-08-29T19:39:01.950Z,22.60
2022-08-29T19:41:28.685Z,22.50
2022-08-29T19:43:55.540Z,22.50
2022-08-29T19:46:24.054Z,22.50
2022-08-29T19:48:52.560Z,22.40
2022-08-29T19:51:25.075Z,22.40
2022-08-29T19:53:53.928Z,22.40
2022-08-29T19:56:20.923Z,22.40
2022-08-29T19:58:49.516Z,22.30
2022-08-29T20:01:17.263Z,22.30
2022-08-29T20:03:44.527Z,22.30
2022-08-29T20:06:12.249Z,22.30
2022-08-29T20:08:43.651Z,22.30
2022-08-29T20:11:14.153Z,22.20
2022-08-29T20:13:47.571Z,22.20
2022-08-29T20:16:21.855Z,22.20
2022-08-29T20:18:48.867Z,22.20
2022-08-29T20:21:17.272Z,22.10
2022-08-29T20:23:49.963Z,22.10
2022-08-29T20:26:20.965Z,22.10
2022-08-29T20:28:51.654Z,22.00
2022-08-29T20:31:19.405Z,21.90
2022-08-29T20:33:48.258Z,21.90
2022-08-29T20:36:38.581Z,21.90
2022-08-29T20:39:07.718Z,21.80
2022-08-29T20:41:34.947Z,21.80
2022-08-29T20:44:06.983Z,21.80
2022-08-29T20:46:40.403Z,21.60
2022-08-29T20:49:12.502Z,21.60
2022-08-29T20:51:44.358Z,21.60
2022-08-29T20:54:17.778Z,21.60
2022-08-29T20:56:44.854Z,21.50
2022-08-29T20:59:12.339Z,21.50
2022-08-29T21:01:40.358Z,21.40
2022-08-29T21:04:27.804Z,21.40
2022-08-29T21:07:08.717Z,21.30
2022-08-29T21:09:40.272Z,21.30
2022-08-29T21:12:07.942Z,21.20
2022-08-29T21:14:34.763Z,21.10
2022-08-29T21:17:02.750Z,21.20
2022-08-29T21:19:30.025Z,21.10
2022-08-29T21:22:02.643Z,21.10
2022-08-29T21:24:30.406Z,21.10
2022-08-29T21:26:57.642Z,21.10
2022-08-29T21:29:24.458Z,21.00
2022-08-29T21:31:53.962Z,21.00
2022-08-29T21:34:22.258Z,20.90
2022-08-29T21:36:50.563Z,20.90
2022-08-29T21:39:19.673Z,20.90
2022-08-29T21:41:56.497Z,20.90
2022-08-29T21:44:23.843Z,20.90
2022-08-29T21:46:50.702Z,20.80
2022-08-29T21:49:21.740Z,20.80
2022-08-29T21:51:49.561Z,20.80
2022-08-29T21:54:17.989Z,20.80
2022-08-29T21:56:46.220Z,20.70
2022-08-29T21:59:14.970Z,20.70
2022-08-29T22:01:43.798Z,20.70
2022-08-29T22:04:18.687Z,20.70
2022-08-29T22:06:55.640Z,20.60
2022-08-29T22:09:23.214Z,20.60
2022-08-29T22:11:50.283Z,20.60
2022-08-29T22:14:17.084Z,20.50
2022-08-29T22:16:43.964Z,20.50
2022-08-29T22:19:16.811Z,20.50
2022-08-29T22:21:51.990Z,20.40
2022-08-29T22:24:19.354Z,20.40
2022-08-29T22:26:46.937Z,20.40
2022-08-29T22:29:18.309Z,20.50
2022-08-29T22:31:45.778Z,20.40
2022-08-29T22:34:16.776Z,20.30
2022-08-29T22:36:44.254Z,20.40
2022-08-29T22:39:11.505Z,20.30
2022-08-29T22:41:38.376Z,20.30
2022-08-29T22:46:53.963Z,20.30
2022-08-29T22:49:21.294Z,20.20
2022-08-29T22:51:49.006Z,20.10
2022-08-29T22:54:48.130Z,20.20
2022-08-29T22:57:19.174Z,20.10
2022-08-29T22:59:49.241Z,20.50
2022-08-29T23:02:20.121Z,20.20
2022-08-29T23:04:50.080Z,20.10
2022-08-29T23:07:17.730Z,20.10
2022-08-29T23:09:44.944Z,20.10
2022-08-29T23:12:14.637Z,20.10
2022-08-29T23:14:46.669Z,20.20
2022-08-29T23:17:15.144Z,20.10
2022-08-29T23:19:43.164Z,20.20
2022-08-29T23:22:12.440Z,20.10
2022-08-29T23:24:41.345Z,20.00
2022-08-29T23:27:20.774Z,20.20
2022-08-29T23:29:51.532Z,20.20
2022-08-29T23:32:18.772Z,20.20
2022-08-29T23:34:45.627Z,20.20
2022-08-29T23:37:12.428Z,20.20
2022-08-29T23:39:39.209Z,20.20
2022-08-29T23:42:06.592Z,20.30
2022-08-29T23:44:33.749Z,20.30
2022-08-29T23:47:00.514Z,20.30
2022-08-29T23:49:28.550Z,20.30
2022-08-29T23:51:55.402Z,20.30
2022-08-29T23:54:22.179Z,20.30
2022-08-29T23:56:49.124Z,20.20
2022-08-29T23:59:35.880Z,20.30
